sensor_id;sensor_type;location;lat;lon;timestamp;pressure;altitude;pressure_sealevel;temperature;humidity
68859;BME280;55864;49.238;8.092;2022-12-29T00:00:52;98875.78;;;9.61;81.85
68859;BME280;55864;49.238;8.092;2022-12-29T00:02:53;98860.03;;;9.61;82.36
68859;BME280;55864;49.238;8.092;2022-12-29T00:04:54;98870.00;;;9.57;81.90
68859;BME280;55864;49.238;8.092;2022-12-29T00:06:54;98865.66;;;9.48;83.07
68859;BME280;55864;49.238;8.092;2022-12-29T00:08:55;98862.13;;;9.57;82.20
68859;BME280;55864;49.238;8.092;2022-12-29T00:10:56;98859.38;;;9.59;81.82
68859;BME280;55864;49.238;8.092;2022-12-29T00:12:56;98874.34;;;9.66;81.07
68859;BME280;55864;49.238;8.092;2022-12-29T00:14:57;98864.75;;;9.57;81.59
68859;BME280;55864;49.238;8.092;2022-12-29T00:16:59;98854.88;;;9.51;82.46
68859;BME280;55864;49.238;8.092;2022-12-29T00:19:00;98860.63;;;9.55;82.07
68859;BME280;55864;49.238;8.092;2022-12-29T00:21:00;98859.53;;;9.57;81.29
68859;BME280;55864;49.238;8.092;2022-12-29T00:23:01;98854.63;;;9.62;80.45
68859;BME280;55864;49.238;8.092;2022-12-29T00:25:02;98855.63;;;9.61;80.88
68859;BME280;55864;49.238;8.092;2022-12-29T00:27:11;98856.22;;;9.73;79.46
68859;BME280;55864;49.238;8.092;2022-12-29T00:29:12;98845.47;;;9.84;78.83
68859;BME280;55864;49.238;8.092;2022-12-29T00:31:12;98853.63;;;9.81;78.77
68859;BME280;55864;49.238;8.092;2022-12-29T00:33:16;98856.09;;;10.00;77.79
68859;BME280;55864;49.238;8.092;2022-12-29T00:35:23;98862.31;;;9.99;78.31
68859;BME280;55864;49.238;8.092;2022-12-29T00:37:25;98864.72;;;9.92;78.96
68859;BME280;55864;49.238;8.092;2022-12-29T00:39:26;98865.28;;;10.04;78.75
68859;BME280;55864;49.238;8.092;2022-12-29T00:41:26;98871.88;;;10.08;78.61
68859;BME280;55864;49.238;8.092;2022-12-29T00:43:27;98866.81;;;10.06;79.32
68859;BME280;55864;49.238;8.092;2022-12-29T00:45:27;98852.19;;;10.04;80.02
68859;BME280;55864;49.238;8.092;2022-12-29T00:47:28;98869.88;;;10.02;80.13
68859;BME280;55864;49.238;8.092;2022-12-29T00:49:30;98856.59;;;10.03;80.16
68859;BME280;55864;49.238;8.092;2022-12-29T00:51:31;98869.44;;;10.06;80.52
68859;BME280;55864;49.238;8.092;2022-12-29T00:53:32;98863.19;;;10.07;81.17
68859;BME280;55864;49.238;8.092;2022-12-29T00:55:36;98849.34;;;9.97;81.67
68859;BME280;55864;49.238;8.092;2022-12-29T00:57:36;98868.06;;;10.02;81.80
68859;BME280;55864;49.238;8.092;2022-12-29T00:59:38;98858.72;;;10.00;82.12
68859;BME280;55864;49.238;8.092;2022-12-29T01:01:39;98853.00;;;10.04;81.78
68859;BME280;55864;49.238;8.092;2022-12-29T01:03:40;98852.19;;;10.04;82.20
68859;BME280;55864;49.238;8.092;2022-12-29T01:05:44;98854.47;;;10.07;82.51
68859;BME280;55864;49.238;8.092;2022-12-29T01:07:46;98862.31;;;9.99;82.32
68859;BME280;55864;49.238;8.092;2022-12-29T01:09:47;98855.56;;;9.96;82.70
68859;BME280;55864;49.238;8.092;2022-12-29T01:11:49;98861.25;;;9.92;83.49
68859;BME280;55864;49.238;8.092;2022-12-29T01:13:50;98840.16;;;9.93;82.96
68859;BME280;55864;49.238;8.092;2022-12-29T01:15:50;98848.38;;;9.98;83.27
68859;BME280;55864;49.238;8.092;2022-12-29T01:17:51;98842.78;;;9.93;83.63
68859;BME280;55864;49.238;8.092;2022-12-29T01:19:51;98842.50;;;10.04;83.14
68859;BME280;55864;49.238;8.092;2022-12-29T01:21:53;98838.88;;;9.97;83.45
68859;BME280;55864;49.238;8.092;2022-12-29T01:23:54;98845.75;;;9.98;83.41
68859;BME280;55864;49.238;8.092;2022-12-29T01:25:55;98839.72;;;10.06;82.65
68859;BME280;55864;49.238;8.092;2022-12-29T01:27:55;98855.63;;;10.04;83.72
68859;BME280;55864;49.238;8.092;2022-12-29T01:29:56;98849.34;;;9.97;85.48
68859;BME280;55864;49.238;8.092;2022-12-29T01:31:57;98835.69;;;9.94;86.25
68859;BME280;55864;49.238;8.092;2022-12-29T01:33:57;98854.69;;;9.88;86.41
68859;BME280;55864;49.238;8.092;2022-12-29T01:35:59;98836.78;;;9.83;86.76
68859;BME280;55864;49.238;8.092;2022-12-29T01:38:01;98844.34;;;9.86;86.72
68859;BME280;55864;49.238;8.092;2022-12-29T01:40:02;98842.69;;;9.85;86.94
68859;BME280;55864;49.238;8.092;2022-12-29T01:42:03;98837.75;;;9.82;86.91
68859;BME280;55864;49.238;8.092;2022-12-29T01:46:40;98836.78;;;9.83;86.82
68859;BME280;55864;49.238;8.092;2022-12-29T01:48:42;98829.59;;;9.85;85.53
68859;BME280;55864;49.238;8.092;2022-12-29T01:50:46;98828.09;;;9.83;85.72
68859;BME280;55864;49.238;8.092;2022-12-29T01:52:52;98824.34;;;9.85;85.52
68859;BME280;55864;49.238;8.092;2022-12-29T01:54:57;98834.34;;;9.90;85.78
68859;BME280;55864;49.238;8.092;2022-12-29T01:57:01;98828.38;;;9.97;85.42
68859;BME280;55864;49.238;8.092;2022-12-29T01:59:06;98826.34;;;9.91;84.99
68859;BME280;55864;49.238;8.092;2022-12-29T02:01:08;98820.59;;;9.88;85.16
68859;BME280;55864;49.238;8.092;2022-12-29T02:03:10;98822.22;;;9.89;84.75
68859;BME280;55864;49.238;8.092;2022-12-29T02:05:14;98836.09;;;9.81;85.12
68859;BME280;55864;49.238;8.092;2022-12-29T02:07:21;98820.28;;;9.91;84.19
68859;BME280;55864;49.238;8.092;2022-12-29T02:09:23;98830.78;;;9.91;84.45
68859;BME280;55864;49.238;8.092;2022-12-29T02:11:28;98828.97;;;9.91;84.65
68859;BME280;55864;49.238;8.092;2022-12-29T02:13:29;98826.06;;;9.77;85.59
68859;BME280;55864;49.238;8.092;2022-12-29T02:15:37;98822.13;;;9.73;86.26
68859;BME280;55864;49.238;8.092;2022-12-29T02:17:52;98823.75;;;9.74;85.84
68859;BME280;55864;49.238;8.092;2022-12-29T02:20:27;98819.38;;;9.82;85.90
68859;BME280;55864;49.238;8.092;2022-12-29T02:22:37;98812.19;;;9.84;85.06
68859;BME280;55864;49.238;8.092;2022-12-29T02:25:10;98794.16;;;9.81;84.97
68859;BME280;55864;49.238;8.092;2022-12-29T02:30:04;98790.75;;;9.89;84.46
68859;BME280;55864;49.238;8.092;2022-12-29T02:32:07;98795.69;;;9.92;84.04
68859;BME280;55864;49.238;8.092;2022-12-29T02:34:17;98793.88;;;9.92;83.80
68859;BME280;55864;49.238;8.092;2022-12-29T02:36:29;98795.56;;;10.01;82.95
68859;BME280;55864;49.238;8.092;2022-12-29T02:38:44;98778.72;;;10.04;82.98
68859;BME280;55864;49.238;8.092;2022-12-29T02:40:51;98786.41;;;10.05;82.07
68859;BME280;55864;49.238;8.092;2022-12-29T02:43:00;98790.41;;;10.09;81.73
68859;BME280;55864;49.238;8.092;2022-12-29T02:45:05;98784.47;;;10.07;81.50
68859;BME280;55864;49.238;8.092;2022-12-29T02:47:14;98795.56;;;10.01;82.42
68859;BME280;55864;49.238;8.092;2022-12-29T02:49:20;98795.94;;;10.06;81.39
68859;BME280;55864;49.238;8.092;2022-12-29T02:51:26;98786.94;;;10.09;81.29
68859;BME280;55864;49.238;8.092;2022-12-29T02:53:29;98786.50;;;10.13;80.75
68859;BME280;55864;49.238;8.092;2022-12-29T02:55:31;98780.88;;;10.08;80.79
68859;BME280;55864;49.238;8.092;2022-12-29T02:57:33;98779.97;;;10.17;79.72
68859;BME280;55864;49.238;8.092;2022-12-29T02:59:35;98794.22;;;10.15;79.90
68859;BME280;55864;49.238;8.092;2022-12-29T03:01:50;98771.97;;;10.27;78.53
68859;BME280;55864;49.238;8.092;2022-12-29T03:04:10;98765.34;;;10.15;79.92
68859;BME280;55864;49.238;8.092;2022-12-29T03:06:25;98729.47;;;10.23;78.17
68859;BME280;55864;49.238;8.092;2022-12-29T03:08:34;98762.81;;;10.31;77.34
68859;BME280;55864;49.238;8.092;2022-12-29T03:10:46;98762.03;;;10.38;76.79
68859;BME280;55864;49.238;8.092;2022-12-29T03:12:53;98754.09;;;10.30;76.72
68859;BME280;55864;49.238;8.092;2022-12-29T03:14:59;98767.41;;;10.29;76.88
68859;BME280;55864;49.238;8.092;2022-12-29T03:17:05;98759.53;;;10.29;76.89
68859;BME280;55864;49.238;8.092;2022-12-29T03:19:14;98762.31;;;10.27;76.95
68859;BME280;55864;49.238;8.092;2022-12-29T03:21:20;98758.38;;;10.31;76.37
68859;BME280;55864;49.238;8.092;2022-12-29T03:23:26;98753.31;;;10.38;76.00
68859;BME280;55864;49.238;8.092;2022-12-29T03:25:30;98752.19;;;10.40;75.66
68859;BME280;55864;49.238;8.092;2022-12-29T03:27:35;98737.22;;;10.33;75.87
68859;BME280;55864;49.238;8.092;2022-12-29T03:29:41;98734.94;;;10.38;75.15
68859;BME280;55864;49.238;8.092;2022-12-29T03:31:46;98732.00;;;10.41;75.02
68859;BME280;55864;49.238;8.092;2022-12-29T03:33:48;98726.59;;;10.43;75.09
68859;BME280;55864;49.238;8.092;2022-12-29T03:35:54;98723.31;;;10.40;74.88
68859;BME280;55864;49.238;8.092;2022-12-29T03:37:59;98719.88;;;10.48;74.62
68859;BME280;55864;49.238;8.092;2022-12-29T03:40:04;98714.59;;;10.40;74.76
68859;BME280;55864;49.238;8.092;2022-12-29T03:42:09;98719.53;;;10.35;75.45
68859;BME280;55864;49.238;8.092;2022-12-29T03:44:11;98720.19;;;10.45;74.49
68859;BME280;55864;49.238;8.092;2022-12-29T03:46:13;98720.53;;;10.42;74.44
68859;BME280;55864;49.238;8.092;2022-12-29T03:48:15;98729.84;;;10.36;74.62
68859;BME280;55864;49.238;8.092;2022-12-29T03:50:17;98734.13;;;10.37;74.85
68859;BME280;55864;49.238;8.092;2022-12-29T03:52:19;98724.97;;;10.50;74.18
68859;BME280;55864;49.238;8.092;2022-12-29T03:54:21;98718.56;;;10.44;74.46
68859;BME280;55864;49.238;8.092;2022-12-29T03:56:21;98712.84;;;10.57;73.75
68859;BME280;55864;49.238;8.092;2022-12-29T03:58:23;98713.47;;;10.51;73.85
68859;BME280;55864;49.238;8.092;2022-12-29T04:00:32;98710.41;;;10.71;72.46
68859;BME280;55864;49.238;8.092;2022-12-29T04:02:33;98717.63;;;10.61;73.39
68859;BME280;55864;49.238;8.092;2022-12-29T04:04:33;98714.06;;;10.78;72.75
68859;BME280;55864;49.238;8.092;2022-12-29T04:06:34;98716.66;;;10.70;73.24
68859;BME280;55864;49.238;8.092;2022-12-29T04:08:41;98712.72;;;10.66;73.49
68859;BME280;55864;49.238;8.092;2022-12-29T04:10:42;98706.47;;;10.75;72.98
68859;BME280;55864;49.238;8.092;2022-12-29T04:12:43;98708.81;;;10.78;73.05
68859;BME280;55864;49.238;8.092;2022-12-29T04:14:43;98702.72;;;10.78;72.86
68859;BME280;55864;49.238;8.092;2022-12-29T04:16:44;98709.75;;;10.77;73.41
68859;BME280;55864;49.238;8.092;2022-12-29T04:18:45;98707.50;;;10.82;73.09
68859;BME280;55864;49.238;8.092;2022-12-29T04:20:46;98686.81;;;10.87;72.63
68859;BME280;55864;49.238;8.092;2022-12-29T04:22:47;98707.97;;;10.78;72.88
68859;BME280;55864;49.238;8.092;2022-12-29T04:24:50;98705.31;;;10.70;73.46
68859;BME280;55864;49.238;8.092;2022-12-29T04:26:51;98703.41;;;10.88;72.37
68859;BME280;55864;49.238;8.092;2022-12-29T04:29:15;98714.03;;;10.86;72.64
68859;BME280;55864;49.238;8.092;2022-12-29T04:31:48;98705.19;;;10.79;73.56
68859;BME280;55864;49.238;8.092;2022-12-29T04:33:48;98712.91;;;10.73;74.04
68859;BME280;55864;49.238;8.092;2022-12-29T04:35:49;98703.84;;;10.75;75.18
68859;BME280;55864;49.238;8.092;2022-12-29T04:37:51;98710.94;;;10.75;75.18
68859;BME280;55864;49.238;8.092;2022-12-29T04:39:53;98711.41;;;10.70;75.79
68859;BME280;55864;49.238;8.092;2022-12-29T04:41:53;98719.78;;;10.74;76.78
68859;BME280;55864;49.238;8.092;2022-12-29T04:43:55;98712.72;;;10.66;77.87
68859;BME280;55864;49.238;8.092;2022-12-29T04:46:18;98716.63;;;10.62;78.34
68859;BME280;55864;49.238;8.092;2022-12-29T04:48:25;98732.53;;;10.53;77.97
68859;BME280;55864;49.238;8.092;2022-12-29T04:50:54;98718.94;;;10.57;77.63
68859;BME280;55864;49.238;8.092;2022-12-29T04:52:58;98713.50;;;10.59;76.82
68859;BME280;55864;49.238;8.092;2022-12-29T04:55:02;98701.50;;;10.56;77.04
68859;BME280;55864;49.238;8.092;2022-12-29T04:57:03;98714.84;;;10.63;77.07
68859;BME280;55864;49.238;8.092;2022-12-29T04:59:03;98706.09;;;10.54;77.21
68859;BME280;55864;49.238;8.092;2022-12-29T05:01:04;98702.00;;;10.52;77.45
68859;BME280;55864;49.238;8.092;2022-12-29T05:03:05;98694.16;;;10.60;76.28
68859;BME280;55864;49.238;8.092;2022-12-29T05:05:06;98700.72;;;10.56;77.26
68859;BME280;55864;49.238;8.092;2022-12-29T05:07:09;98719.41;;;10.61;76.42
68859;BME280;55864;49.238;8.092;2022-12-29T05:09:11;98701.69;;;10.55;76.77
68859;BME280;55864;49.238;8.092;2022-12-29T05:11:13;98702.69;;;10.62;76.42
68859;BME280;55864;49.238;8.092;2022-12-29T05:13:14;98698.06;;;10.48;76.64
68859;BME280;55864;49.238;8.092;2022-12-29T05:15:16;98703.81;;;10.51;76.65
68859;BME280;55864;49.238;8.092;2022-12-29T05:17:17;98696.22;;;10.40;77.47
68859;BME280;55864;49.238;8.092;2022-12-29T05:19:18;98700.16;;;10.36;77.43
68859;BME280;55864;49.238;8.092;2022-12-29T05:21:18;98700.50;;;10.49;76.20
68859;BME280;55864;49.238;8.092;2022-12-29T05:23:19;98701.97;;;10.43;76.75
68859;BME280;55864;49.238;8.092;2022-12-29T05:25:25;98702.97;;;10.51;76.15
68859;BME280;55864;49.238;8.092;2022-12-29T05:27:39;98694.81;;;10.62;75.68
68859;BME280;55864;49.238;8.092;2022-12-29T05:29:51;98704.97;;;10.57;75.84
68859;BME280;55864;49.238;8.092;2022-12-29T05:31:51;98700.22;;;10.52;75.90
68859;BME280;55864;49.238;8.092;2022-12-29T05:33:52;98709.75;;;10.61;74.57
68859;BME280;55864;49.238;8.092;2022-12-29T05:35:53;98697.28;;;10.71;74.35
68859;BME280;55864;49.238;8.092;2022-12-29T05:37:55;98703.47;;;10.54;75.11
68859;BME280;55864;49.238;8.092;2022-12-29T05:39:55;98703.19;;;10.65;74.62
68859;BME280;55864;49.238;8.092;2022-12-29T05:41:57;98706.97;;;10.63;73.87
68859;BME280;55864;49.238;8.092;2022-12-29T05:44:34;98698.28;;;10.78;73.33
68859;BME280;55864;49.238;8.092;2022-12-29T05:46:57;98683.03;;;10.82;73.22
68859;BME280;55864;49.238;8.092;2022-12-29T05:49:16;98681.06;;;11.00;71.71
68859;BME280;55864;49.238;8.092;2022-12-29T05:51:29;98675.47;;;10.95;72.14
68859;BME280;55864;49.238;8.092;2022-12-29T05:53:31;98684.19;;;10.87;72.67
68859;BME280;55864;49.238;8.092;2022-12-29T05:55:32;98677.09;;;10.96;72.22
68859;BME280;55864;49.238;8.092;2022-12-29T05:57:33;98664.63;;;10.98;71.70
68859;BME280;55864;49.238;8.092;2022-12-29T05:59:46;98676.16;;;11.05;70.78
68859;BME280;55864;49.238;8.092;2022-12-29T06:01:46;98680.41;;;10.98;70.68
68859;BME280;55864;49.238;8.092;2022-12-29T06:03:47;98682.56;;;11.10;70.12
68859;BME280;55864;49.238;8.092;2022-12-29T06:05:47;98683.88;;;11.14;69.59
68859;BME280;55864;49.238;8.092;2022-12-29T06:07:50;98687.28;;;11.15;69.64
68859;BME280;55864;49.238;8.092;2022-12-29T06:09:51;98672.53;;;11.22;69.46
68859;BME280;55864;49.238;8.092;2022-12-29T06:11:53;98684.34;;;11.18;69.47
68859;BME280;55864;49.238;8.092;2022-12-29T06:13:53;98680.72;;;11.11;70.04
68859;BME280;55864;49.238;8.092;2022-12-29T06:15:56;98680.41;;;11.22;69.00
68859;BME280;55864;49.238;8.092;2022-12-29T06:17:59;98678.09;;;11.19;69.03
68859;BME280;55864;49.238;8.092;2022-12-29T06:20:00;98683.34;;;11.19;68.84
68859;BME280;55864;49.238;8.092;2022-12-29T06:22:01;98690.25;;;11.28;68.20
68859;BME280;55864;49.238;8.092;2022-12-29T06:24:02;98667.41;;;11.20;68.71
68859;BME280;55864;49.238;8.092;2022-12-29T06:26:03;98683.34;;;11.35;67.56
68859;BME280;55864;49.238;8.092;2022-12-29T06:28:04;98676.09;;;11.45;67.51
68859;BME280;55864;49.238;8.092;2022-12-29T06:30:06;98675.94;;;11.47;67.31
68859;BME280;55864;49.238;8.092;2022-12-29T06:32:08;98669.88;;;11.46;67.01
68859;BME280;55864;49.238;8.092;2022-12-29T06:34:10;98664.91;;;11.43;67.53
68859;BME280;55864;49.238;8.092;2022-12-29T06:36:10;98674.13;;;11.55;66.86
68859;BME280;55864;49.238;8.092;2022-12-29T06:38:11;98664.06;;;11.59;66.39
68859;BME280;55864;49.238;8.092;2022-12-29T06:40:12;98679.53;;;11.62;66.18
68859;BME280;55864;49.238;8.092;2022-12-29T06:42:31;98671.16;;;11.50;66.56
68859;BME280;55864;49.238;8.092;2022-12-29T06:45:00;98672.97;;;11.50;66.83
68859;BME280;55864;49.238;8.092;2022-12-29T06:47:00;98673.63;;;11.44;66.72
68859;BME280;55864;49.238;8.092;2022-12-29T06:49:02;98673.47;;;11.53;66.05
68859;BME280;55864;49.238;8.092;2022-12-29T06:51:03;98676.09;;;11.45;66.65
68859;BME280;55864;49.238;8.092;2022-12-29T06:53:04;98680.72;;;11.35;68.55
68859;BME280;55864;49.238;8.092;2022-12-29T06:55:05;98675.13;;;11.30;69.34
68859;BME280;55864;49.238;8.092;2022-12-29T06:57:05;98674.31;;;11.21;69.37
68859;BME280;55864;49.238;8.092;2022-12-29T06:59:06;98674.31;;;11.13;69.90
68859;BME280;55864;49.238;8.092;2022-12-29T07:01:07;98672.84;;;11.03;70.76
68859;BME280;55864;49.238;8.092;2022-12-29T07:03:07;98673.16;;;11.00;70.60
68859;BME280;55864;49.238;8.092;2022-12-29T07:05:09;98672.03;;;11.02;70.46
68859;BME280;55864;49.238;8.092;2022-12-29T07:07:10;98673.19;;;11.16;68.49
68859;BME280;55864;49.238;8.092;2022-12-29T07:09:11;98669.91;;;11.14;68.09
68859;BME280;55864;49.238;8.092;2022-12-29T07:11:11;98683.03;;;11.22;67.40
68859;BME280;55864;49.238;8.092;2022-12-29T07:13:12;98675.47;;;11.27;67.35
68859;BME280;55864;49.238;8.092;2022-12-29T07:15:12;98684.81;;;11.37;66.73
68859;BME280;55864;49.238;8.092;2022-12-29T07:17:13;98670.88;;;11.37;66.56
68859;BME280;55864;49.238;8.092;2022-12-29T07:19:14;98681.53;;;11.44;66.60
68859;BME280;55864;49.238;8.092;2022-12-29T07:21:30;98678.75;;;11.37;67.25
68859;BME280;55864;49.238;8.092;2022-12-29T07:23:31;98679.41;;;11.23;67.84
68859;BME280;55864;49.238;8.092;2022-12-29T07:25:32;98675.97;;;11.30;67.01
68859;BME280;55864;49.238;8.092;2022-12-29T07:27:32;98682.34;;;11.44;65.82
68859;BME280;55864;49.238;8.092;2022-12-29T07:29:33;98683.31;;;11.51;65.61
68859;BME280;55864;49.238;8.092;2022-12-29T07:31:33;98686.78;;;11.44;66.17
68859;BME280;55864;49.238;8.092;2022-12-29T07:33:34;98689.06;;;11.55;65.71
68859;BME280;55864;49.238;8.092;2022-12-29T07:35:36;98686.13;;;11.50;66.02
68859;BME280;55864;49.238;8.092;2022-12-29T08:18:12;98722.09;;;11.81;65.69
68859;BME280;55864;49.238;8.092;2022-12-29T08:20:12;98733.47;;;11.58;66.91
68859;BME280;55864;49.238;8.092;2022-12-29T08:22:13;98720.47;;;11.72;66.90
68859;BME280;55864;49.238;8.092;2022-12-29T08:24:14;98727.53;;;11.72;66.89
68859;BME280;55864;49.238;8.092;2022-12-29T08:26:14;98730.50;;;11.69;66.67
68859;BME280;55864;49.238;8.092;2022-12-29T08:28:15;98727.72;;;11.78;66.38
68859;BME280;55864;49.238;8.092;2022-12-29T08:30:16;98739.72;;;11.73;66.64
68859;BME280;55864;49.238;8.092;2022-12-29T08:32:16;98734.28;;;11.74;67.16
68859;BME280;55864;49.238;8.092;2022-12-29T08:34:19;98748.25;;;11.83;67.41
68859;BME280;55864;49.238;8.092;2022-12-29T08:36:20;98742.47;;;11.95;67.18
68859;BME280;55864;49.238;8.092;2022-12-29T08:38:20;98742.28;;;11.97;67.20
68859;BME280;55864;49.238;8.092;2022-12-29T08:40:21;98748.59;;;11.80;67.80
68859;BME280;55864;49.238;8.092;2022-12-29T08:42:21;98757.63;;;11.77;68.95
68859;BME280;55864;49.238;8.092;2022-12-29T08:44:22;98754.50;;;11.82;69.61
68859;BME280;55864;49.238;8.092;2022-12-29T08:46:23;98762.75;;;11.79;70.18
68859;BME280;55864;49.238;8.092;2022-12-29T08:48:23;98750.56;;;11.78;70.59
68859;BME280;55864;49.238;8.092;2022-12-29T08:50:25;98753.53;;;11.67;70.62
68859;BME280;55864;49.238;8.092;2022-12-29T08:52:26;98765.88;;;11.66;70.38
68859;BME280;55864;49.238;8.092;2022-12-29T08:54:26;98762.06;;;11.53;72.19
68859;BME280;55864;49.238;8.092;2022-12-29T08:56:27;98765.84;;;11.50;72.46
68859;BME280;55864;49.238;8.092;2022-12-29T08:58:30;98758.44;;;11.46;72.92
68859;BME280;55864;49.238;8.092;2022-12-29T09:00:31;98765.69;;;11.44;73.76
68859;BME280;55864;49.238;8.092;2022-12-29T09:02:32;98777.03;;;11.44;73.54
68859;BME280;55864;49.238;8.092;2022-12-29T09:04:33;98768.63;;;11.32;75.45
68859;BME280;55864;49.238;8.092;2022-12-29T09:06:35;98774.22;;;11.29;75.85
68859;BME280;55864;49.238;8.092;2022-12-29T09:08:36;98779.66;;;11.20;76.65
68859;BME280;55864;49.238;8.092;2022-12-29T09:10:37;98776.50;;;11.24;75.84
68859;BME280;55864;49.238;8.092;2022-12-29T09:12:37;98786.22;;;11.24;76.00
68859;BME280;55864;49.238;8.092;2022-12-29T09:14:38;98803.28;;;11.12;77.72
68859;BME280;55864;49.238;8.092;2022-12-29T09:16:54;98797.84;;;11.05;79.12
68859;BME280;55864;49.238;8.092;2022-12-29T09:18:54;98799.34;;;11.08;78.99
68859;BME280;55864;49.238;8.092;2022-12-29T09:20:56;98785.84;;;10.95;80.19
68859;BME280;55864;49.238;8.092;2022-12-29T09:22:58;98794.03;;;10.84;80.85
68859;BME280;55864;49.238;8.092;2022-12-29T09:24:59;98790.72;;;10.82;80.69
68859;BME280;55864;49.238;8.092;2022-12-29T09:27:00;98808.97;;;10.83;80.88
68859;BME280;55864;49.238;8.092;2022-12-29T09:29:00;98813.38;;;10.83;80.63
68859;BME280;55864;49.238;8.092;2022-12-29T09:31:01;98799.59;;;10.81;80.99
68859;BME280;55864;49.238;8.092;2022-12-29T09:33:01;98812.88;;;10.79;82.10
68859;BME280;55864;49.238;8.092;2022-12-29T09:35:03;98816.03;;;10.91;81.71
68859;BME280;55864;49.238;8.092;2022-12-29T09:37:04;98809.50;;;10.95;81.36
68859;BME280;55864;49.238;8.092;2022-12-29T09:39:05;98816.50;;;10.78;81.60
68859;BME280;55864;49.238;8.092;2022-12-29T09:41:12;98816.00;;;10.75;82.20
68859;BME280;55864;49.238;8.092;2022-12-29T09:43:27;98808.63;;;10.86;80.69
68859;BME280;55864;49.238;8.092;2022-12-29T09:45:36;98813.13;;;10.94;80.04
68859;BME280;55864;49.238;8.092;2022-12-29T09:47:41;98808.78;;;10.85;80.14
68859;BME280;55864;49.238;8.092;2022-12-29T09:49:44;98825.06;;;10.80;80.57
68859;BME280;55864;49.238;8.092;2022-12-29T09:51:50;98809.78;;;10.84;80.44
68859;BME280;55864;49.238;8.092;2022-12-29T09:53:56;98824.88;;;10.82;80.13
68859;BME280;55864;49.238;8.092;2022-12-29T09:56:01;98825.22;;;10.87;79.66
68859;BME280;55864;49.238;8.092;2022-12-29T09:58:03;98819.94;;;10.79;80.97
68859;BME280;55864;49.238;8.092;2022-12-29T10:00:11;98821.59;;;10.80;80.95
68859;BME280;55864;49.238;8.092;2022-12-29T10:02:23;98814.28;;;10.99;78.05
68859;BME280;55864;49.238;8.092;2022-12-29T10:04:29;98811.63;;;11.07;77.32
68859;BME280;55864;49.238;8.092;2022-12-29T10:06:33;98810.47;;;11.02;78.23
68859;BME280;55864;49.238;8.092;2022-12-29T10:08:40;98807.69;;;11.03;78.22
68859;BME280;55864;49.238;8.092;2022-12-29T10:10:49;98816.09;;;11.07;77.91
68859;BME280;55864;49.238;8.092;2022-12-29T10:13:04;98818.88;;;11.05;77.46
68859;BME280;55864;49.238;8.092;2022-12-29T10:15:13;98815.09;;;11.08;76.51
68859;BME280;55864;49.238;8.092;2022-12-29T10:17:25;98832.06;;;11.29;75.64
68859;BME280;55864;49.238;8.092;2022-12-29T10:19:43;98825.94;;;11.13;77.31
68859;BME280;55864;49.238;8.092;2022-12-29T10:21:58;98821.88;;;11.26;75.80
68859;BME280;55864;49.238;8.092;2022-12-29T10:24:03;98826.81;;;11.21;76.12
68859;BME280;55864;49.238;8.092;2022-12-29T10:26:09;98825.63;;;11.16;75.44
68859;BME280;55864;49.238;8.092;2022-12-29T10:28:19;98827.28;;;11.17;75.97
68859;BME280;55864;49.238;8.092;2022-12-29T10:30:21;98835.50;;;11.14;76.84
68859;BME280;55864;49.238;8.092;2022-12-29T10:32:29;98830.91;;;11.16;75.50
68859;BME280;55864;49.238;8.092;2022-12-29T10:34:36;98831.88;;;11.15;76.27
68859;BME280;55864;49.238;8.092;2022-12-29T10:36:39;98834.81;;;11.12;76.82
68859;BME280;55864;49.238;8.092;2022-12-29T10:38:47;98831.53;;;11.10;76.60
68859;BME280;55864;49.238;8.092;2022-12-29T10:40:52;98838.78;;;11.16;76.47
68859;BME280;55864;49.238;8.092;2022-12-29T10:42:55;98847.34;;;11.18;76.52
68859;BME280;55864;49.238;8.092;2022-12-29T10:44:58;98846.16;;;11.20;76.54
68859;BME280;55864;49.238;8.092;2022-12-29T10:47:02;98838.00;;;11.31;75.80
68859;BME280;55864;49.238;8.092;2022-12-29T10:49:05;98829.78;;;11.51;74.34
68859;BME280;55864;49.238;8.092;2022-12-29T10:51:07;98835.03;;;11.59;74.28
68859;BME280;55864;49.238;8.092;2022-12-29T10:53:15;98830.31;;;11.78;72.03
68859;BME280;55864;49.238;8.092;2022-12-29T10:55:22;98826.03;;;11.85;73.13
68859;BME280;55864;49.238;8.092;2022-12-29T10:57:27;98819.28;;;11.91;72.23
68859;BME280;55864;49.238;8.092;2022-12-29T10:59:30;98835.25;;;11.89;72.59
68859;BME280;55864;49.238;8.092;2022-12-29T11:01:37;98834.59;;;11.95;72.52
68859;BME280;55864;49.238;8.092;2022-12-29T11:04:12;98838.38;;;11.93;72.48
68859;BME280;55864;49.238;8.092;2022-12-29T11:06:22;98829.81;;;11.83;72.06
68859;BME280;55864;49.238;8.092;2022-12-29T11:08:27;98849.72;;;11.77;71.71
68859;BME280;55864;49.238;8.092;2022-12-29T11:10:34;98841.34;;;11.74;72.02
68859;BME280;55864;49.238;8.092;2022-12-29T11:12:35;98847.25;;;11.84;69.74
68859;BME280;55864;49.238;8.092;2022-12-29T11:14:36;98844.47;;;11.69;70.46
68859;BME280;55864;49.238;8.092;2022-12-29T11:16:38;98842.94;;;11.59;71.80
68859;BME280;55864;49.238;8.092;2022-12-29T11:18:39;98849.53;;;11.63;72.04
68859;BME280;55864;49.238;8.092;2022-12-29T11:20:41;98841.97;;;11.68;71.70
68859;BME280;55864;49.238;8.092;2022-12-29T11:22:44;98852.00;;;11.56;72.24
68859;BME280;55864;49.238;8.092;2022-12-29T11:24:45;98861.66;;;11.39;73.87
68859;BME280;55864;49.238;8.092;2022-12-29T11:26:46;98860.81;;;11.23;75.75
68859;BME280;55864;49.238;8.092;2022-12-29T11:29:20;98863.41;;;11.07;76.58
68859;BME280;55864;49.238;8.092;2022-12-29T11:31:21;98861.88;;;10.96;77.83
68859;BME280;55864;49.238;8.092;2022-12-29T11:33:23;98857.91;;;10.84;79.10
68859;BME280;55864;49.238;8.092;2022-12-29T11:35:32;98851.81;;;10.84;79.57
68859;BME280;55864;49.238;8.092;2022-12-29T11:37:38;98854.13;;;10.87;80.33
68859;BME280;55864;49.238;8.092;2022-12-29T11:39:41;98859.22;;;10.88;80.80
68859;BME280;55864;49.238;8.092;2022-12-29T11:41:51;98862.22;;;10.93;81.99
68859;BME280;55864;49.238;8.092;2022-12-29T11:43:54;98855.97;;;10.94;82.25
68859;BME280;55864;49.238;8.092;2022-12-29T11:45:56;98859.91;;;10.98;82.42